sensor_id;sensor_type;location;lat;lon;timestamp;pressure;altitude;pressure_sealevel;temperature;humidity
1472;BME280;963;42.644;23.336;2023-02-18T00:00:25;94904.38;;;7.01;49.89
1472;BME280;963;42.644;23.336;2023-02-18T00:02:50;94906.84;;;7.06;49.58
1472;BME280;963;42.644;23.336;2023-02-18T00:19:39;94881.03;;;7.26;49.15
1472;BME280;963;42.644;23.336;2023-02-18T00:22:04;94883.38;;;7.18;49.38
1472;BME280;963;42.644;23.336;2023-02-18T00:24:30;94888.69;;;7.01;49.94
1472;BME280;963;42.644;23.336;2023-02-18T00:26:55;94866.09;;;6.97;49.63
1472;BME280;963;42.644;23.336;2023-02-18T00:29:20;94887.84;;;6.80;50.18
1472;BME280;963;42.644;23.336;2023-02-18T00:31:46;94871.63;;;6.95;49.98
1472;BME280;963;42.644;23.336;2023-02-18T00:34:12;94846.94;;;6.84;49.90
1472;BME280;963;42.644;23.336;2023-02-18T00:36:38;94866.94;;;6.80;49.82
1472;BME280;963;42.644;23.336;2023-02-18T00:39:06;94851.13;;;6.68;50.11
1472;BME280;963;42.644;23.336;2023-02-18T00:41:32;94846.66;;;6.77;50.54
1472;BME280;963;42.644;23.336;2023-02-18T00:43:58;94854.50;;;6.77;50.58
1472;BME280;963;42.644;23.336;2023-02-18T00:46:24;94872.97;;;6.72;49.97
1472;BME280;963;42.644;23.336;2023-02-18T00:48:50;94851.59;;;6.70;50.12
1472;BME280;963;42.644;23.336;2023-02-18T00:51:16;94840.44;;;6.52;50.46
1472;BME280;963;42.644;23.336;2023-02-18T00:53:42;94864.63;;;6.40;50.85
1472;BME280;963;42.644;23.336;2023-02-18T00:56:07;94866.66;;;6.73;50.06
1472;BME280;963;42.644;23.336;2023-02-18T00:58:34;94863.25;;;6.81;49.83
1472;BME280;963;42.644;23.336;2023-02-18T01:01:00;94852.16;;;6.37;51.49
1472;BME280;963;42.644;23.336;2023-02-18T01:03:25;94863.25;;;6.25;51.08
1472;BME280;963;42.644;23.336;2023-02-18T01:05:51;94858.50;;;6.19;52.29
1472;BME280;963;42.644;23.336;2023-02-18T01:08:19;94859.59;;;6.09;51.92
1472;BME280;963;42.644;23.336;2023-02-18T01:10:46;94847.31;;;5.92;51.90
1472;BME280;963;42.644;23.336;2023-02-18T01:13:13;94855.59;;;5.94;51.89
1472;BME280;963;42.644;23.336;2023-02-18T01:15:39;94845.78;;;6.09;51.91
1472;BME280;963;42.644;23.336;2023-02-18T01:18:06;94838.56;;;6.06;51.23
1472;BME280;963;42.644;23.336;2023-02-18T01:20:33;94847.44;;;6.22;51.01
1472;BME280;963;42.644;23.336;2023-02-18T01:22:59;94840.81;;;6.24;50.37
1472;BME280;963;42.644;23.336;2023-02-18T01:25:24;94849.25;;;6.30;50.81
1472;BME280;963;42.644;23.336;2023-02-18T01:27:50;94843.25;;;6.38;50.24
1472;BME280;963;42.644;23.336;2023-02-18T01:30:16;94836.13;;;6.56;50.47
1472;BME280;963;42.644;23.336;2023-02-18T01:32:42;94851.94;;;6.59;49.97
1472;BME280;963;42.644;23.336;2023-02-18T01:35:10;94834.34;;;6.39;50.27
1472;BME280;963;42.644;23.336;2023-02-18T01:37:36;94840.38;;;5.88;51.32
1472;BME280;963;42.644;23.336;2023-02-18T01:40:03;94851.09;;;6.38;50.05
1472;BME280;963;42.644;23.336;2023-02-18T01:42:28;94846.25;;;6.57;50.05
1472;BME280;963;42.644;23.336;2023-02-18T01:48:22;94843.44;;;6.24;50.73
1472;BME280;963;42.644;23.336;2023-02-18T01:51:13;94870.28;;;6.42;50.51
1472;BME280;963;42.644;23.336;2023-02-18T01:53:44;94858.91;;;6.47;50.14
1472;BME280;963;42.644;23.336;2023-02-18T01:56:15;94867.63;;;6.59;50.21
1472;BME280;963;42.644;23.336;2023-02-18T01:58:43;94852.38;;;6.62;49.48
1472;BME280;963;42.644;23.336;2023-02-18T02:01:09;94862.06;;;6.70;49.22
1472;BME280;963;42.644;23.336;2023-02-18T02:03:35;94868.19;;;6.74;49.10
1472;BME280;963;42.644;23.336;2023-02-18T02:06:00;94867.28;;;6.70;48.95
1472;BME280;963;42.644;23.336;2023-02-18T02:08:27;94858.69;;;6.69;49.15
1472;BME280;963;42.644;23.336;2023-02-18T02:11:22;94859.28;;;6.11;50.65
1472;BME280;963;42.644;23.336;2023-02-18T02:13:53;94871.50;;;6.45;50.40
1472;BME280;963;42.644;23.336;2023-02-18T02:35:22;94844.50;;;6.23;50.42
1472;BME280;963;42.644;23.336;2023-02-18T02:38:01;94832.25;;;6.07;50.38
1472;BME280;963;42.644;23.336;2023-02-18T02:40:37;94827.75;;;6.33;49.89
1472;BME280;963;42.644;23.336;2023-02-18T02:43:32;94822.03;;;6.40;49.92
1472;BME280;963;42.644;23.336;2023-02-18T02:46:13;94818.22;;;6.37;49.52
1472;BME280;963;42.644;23.336;2023-02-18T02:49:38;94826.03;;;6.37;49.86
1472;BME280;963;42.644;23.336;2023-02-18T02:52:17;94813.91;;;6.41;50.16
1472;BME280;963;42.644;23.336;2023-02-18T02:54:46;94808.38;;;6.25;50.40
1472;BME280;963;42.644;23.336;2023-02-18T02:59:47;94799.78;;;6.25;50.31
1472;BME280;963;42.644;23.336;2023-02-18T03:07:55;94820.78;;;6.46;49.86
1472;BME280;963;42.644;23.336;2023-02-18T03:12:57;94825.25;;;6.45;49.94
1472;BME280;963;42.644;23.336;2023-02-18T03:21:38;94842.03;;;6.36;51.34
1472;BME280;963;42.644;23.336;2023-02-18T03:24:13;94833.97;;;6.03;52.33
1472;BME280;963;42.644;23.336;2023-02-18T03:26:46;94847.19;;;5.98;51.60
1472;BME280;963;42.644;23.336;2023-02-18T03:29:14;94849.16;;;5.92;51.77
1472;BME280;963;42.644;23.336;2023-02-18T03:31:42;94872.34;;;5.93;52.17
1472;BME280;963;42.644;23.336;2023-02-18T03:34:12;94882.50;;;6.04;51.88
1472;BME280;963;42.644;23.336;2023-02-18T03:36:41;94867.31;;;5.97;51.53
1472;BME280;963;42.644;23.336;2023-02-18T03:39:10;94857.00;;;6.01;52.01
1472;BME280;963;42.644;23.336;2023-02-18T03:41:38;94888.03;;;6.02;51.47
1472;BME280;963;42.644;23.336;2023-02-18T03:44:07;94880.44;;;5.40;53.83
1472;BME280;963;42.644;23.336;2023-02-18T03:46:34;94888.28;;;5.83;52.85
1472;BME280;963;42.644;23.336;2023-02-18T03:49:01;94897.69;;;5.93;52.45
1472;BME280;963;42.644;23.336;2023-02-18T03:51:27;94899.53;;;6.01;51.95
1472;BME280;963;42.644;23.336;2023-02-18T03:53:53;94892.94;;;6.04;52.13
1472;BME280;963;42.644;23.336;2023-02-18T03:56:19;94917.78;;;5.75;52.43
1472;BME280;963;42.644;23.336;2023-02-18T03:58:44;94908.91;;;5.11;54.20
1472;BME280;963;42.644;23.336;2023-02-18T04:01:10;94903.66;;;5.59;53.78
1472;BME280;963;42.644;23.336;2023-02-18T04:03:35;94892.00;;;5.65;53.35
1472;BME280;963;42.644;23.336;2023-02-18T04:06:01;94911.31;;;5.64;53.55
1472;BME280;963;42.644;23.336;2023-02-18T04:08:27;94910.72;;;5.76;53.19
1472;BME280;963;42.644;23.336;2023-02-18T04:10:52;94865.75;;;5.70;53.10
1472;BME280;963;42.644;23.336;2023-02-18T04:13:18;94876.28;;;5.30;53.78
1472;BME280;963;42.644;23.336;2023-02-18T04:15:44;94868.94;;;5.32;53.87
1472;BME280;963;42.644;23.336;2023-02-18T04:18:09;94859.75;;;5.61;52.77
1472;BME280;963;42.644;23.336;2023-02-18T04:20:35;94857.91;;;5.70;52.48
1472;BME280;963;42.644;23.336;2023-02-18T04:23:01;94865.56;;;5.75;52.86
1472;BME280;963;42.644;23.336;2023-02-18T04:25:27;94848.84;;;5.85;52.34
1472;BME280;963;42.644;23.336;2023-02-18T04:27:52;94842.28;;;5.96;51.87
1472;BME280;963;42.644;23.336;2023-02-18T04:30:18;94841.47;;;5.78;52.61
1472;BME280;963;42.644;23.336;2023-02-18T04:32:43;94844.25;;;5.99;51.91
1472;BME280;963;42.644;23.336;2023-02-18T04:35:08;94849.34;;;5.95;51.51
1472;BME280;963;42.644;23.336;2023-02-18T04:37:34;94839.16;;;5.85;52.06
1472;BME280;963;42.644;23.336;2023-02-18T04:39:59;94854.19;;;5.45;53.07
1472;BME280;963;42.644;23.336;2023-02-18T04:42:25;94852.38;;;5.46;53.20
1472;BME280;963;42.644;23.336;2023-02-18T04:44:50;94846.22;;;5.76;52.90
1472;BME280;963;42.644;23.336;2023-02-18T04:47:15;94864.34;;;5.81;52.62
1472;BME280;963;42.644;23.336;2023-02-18T04:49:41;94859.28;;;5.85;52.36
1472;BME280;963;42.644;23.336;2023-02-18T04:52:06;94857.75;;;5.84;52.65
1472;BME280;963;42.644;23.336;2023-02-18T04:54:32;94867.28;;;5.71;53.35
1472;BME280;963;42.644;23.336;2023-02-18T04:56:57;94859.59;;;5.66;53.06
1472;BME280;963;42.644;23.336;2023-02-18T04:59:23;94876.63;;;5.72;52.87
1472;BME280;963;42.644;23.336;2023-02-18T05:01:48;94855.47;;;5.65;53.26
1472;BME280;963;42.644;23.336;2023-02-18T05:04:14;94876.94;;;5.62;53.85
1472;BME280;963;42.644;23.336;2023-02-18T05:06:41;94895.06;;;5.58;53.42
1472;BME280;963;42.644;23.336;2023-02-18T05:09:07;94868.31;;;5.53;53.50
1472;BME280;963;42.644;23.336;2023-02-18T05:11:32;94924.84;;;5.66;53.85
1472;BME280;963;42.644;23.336;2023-02-18T05:13:58;94894.03;;;5.20;54.85
1472;BME280;963;42.644;23.336;2023-02-18T05:16:23;94896.72;;;5.54;54.14
1472;BME280;963;42.644;23.336;2023-02-18T05:18:48;94889.69;;;5.63;53.58
1472;BME280;963;42.644;23.336;2023-02-18T05:21:14;94884.91;;;5.57;54.17
1472;BME280;963;42.644;23.336;2023-02-18T05:23:39;94878.59;;;5.32;54.52
1472;BME280;963;42.644;23.336;2023-02-18T05:26:05;94896.22;;;5.26;55.13
1472;BME280;963;42.644;23.336;2023-02-18T05:28:30;94880.28;;;5.28;54.91
1472;BME280;963;42.644;23.336;2023-02-18T05:30:56;94881.34;;;5.27;54.99
1472;BME280;963;42.644;23.336;2023-02-18T05:33:21;94875.91;;;5.06;55.13
1472;BME280;963;42.644;23.336;2023-02-18T05:35:47;94858.75;;;5.05;55.03
1472;BME280;963;42.644;23.336;2023-02-18T05:38:13;94856.88;;;4.97;54.64
1472;BME280;963;42.644;23.336;2023-02-18T05:40:38;94868.59;;;5.25;53.18
1472;BME280;963;42.644;23.336;2023-02-18T05:43:04;94841.31;;;5.23;53.58
1472;BME280;963;42.644;23.336;2023-02-18T05:45:29;94840.53;;;5.22;53.54
1472;BME280;963;42.644;23.336;2023-02-18T05:47:55;94851.66;;;4.97;54.17
1472;BME280;963;42.644;23.336;2023-02-18T05:50:20;94880.94;;;4.85;54.51
1472;BME280;963;42.644;23.336;2023-02-18T05:52:46;94875.28;;;5.00;54.24
1472;BME280;963;42.644;23.336;2023-02-18T05:55:11;94871.22;;;5.25;53.83
1472;BME280;963;42.644;23.336;2023-02-18T05:57:37;94887.03;;;5.46;53.75
1472;BME280;963;42.644;23.336;2023-02-18T06:00:04;94885.38;;;5.76;52.91
1472;BME280;963;42.644;23.336;2023-02-18T06:02:30;94886.16;;;5.85;52.05
1472;BME280;963;42.644;23.336;2023-02-18T06:04:55;94884.75;;;5.88;52.09
1472;BME280;963;42.644;23.336;2023-02-18T06:07:20;94887.88;;;5.99;51.82
1472;BME280;963;42.644;23.336;2023-02-18T06:09:46;94897.38;;;6.20;51.95
1472;BME280;963;42.644;23.336;2023-02-18T06:12:11;94870.66;;;6.15;51.38
1472;BME280;963;42.644;23.336;2023-02-18T06:14:37;94881.59;;;6.00;52.00
1472;BME280;963;42.644;23.336;2023-02-18T06:17:06;94893.97;;;5.77;52.74
1472;BME280;963;42.644;23.336;2023-02-18T06:19:31;94900.91;;;5.90;52.92
1472;BME280;963;42.644;23.336;2023-02-18T06:21:57;94893.84;;;5.90;52.60
1472;BME280;963;42.644;23.336;2023-02-18T06:24:22;94883.53;;;5.85;52.82
1472;BME280;963;42.644;23.336;2023-02-18T06:26:48;94864.66;;;5.88;52.63
1472;BME280;963;42.644;23.336;2023-02-18T06:29:13;94881.72;;;5.94;52.22
1472;BME280;963;42.644;23.336;2023-02-18T06:31:38;94880.31;;;5.88;52.60
1472;BME280;963;42.644;23.336;2023-02-18T06:34:04;94869.28;;;5.91;52.33
1472;BME280;963;42.644;23.336;2023-02-18T06:36:29;94848.38;;;5.74;52.78
1472;BME280;963;42.644;23.336;2023-02-18T06:38:55;94864.97;;;5.78;53.00
1472;BME280;963;42.644;23.336;2023-02-18T06:41:21;94866.50;;;5.79;53.21
1472;BME280;963;42.644;23.336;2023-02-18T06:43:47;94864.84;;;6.01;53.00
1472;BME280;963;42.644;23.336;2023-02-18T06:46:12;94855.78;;;5.98;52.59
1472;BME280;963;42.644;23.336;2023-02-18T06:48:38;94877.84;;;6.18;52.46
1472;BME280;963;42.644;23.336;2023-02-18T06:51:04;94875.06;;;6.40;51.96
1472;BME280;963;42.644;23.336;2023-02-18T06:53:29;94861.69;;;6.42;51.51
1472;BME280;963;42.644;23.336;2023-02-18T06:55:55;94864.25;;;6.59;50.75
1472;BME280;963;42.644;23.336;2023-02-18T06:58:20;94860.50;;;6.69;51.43
1472;BME280;963;42.644;23.336;2023-02-18T07:00:47;94864.28;;;6.50;52.23
1472;BME280;963;42.644;23.336;2023-02-18T07:03:13;94864.88;;;6.94;50.90
1472;BME280;963;42.644;23.336;2023-02-18T07:05:40;94870.06;;;7.03;50.90
1472;BME280;963;42.644;23.336;2023-02-18T07:08:05;94876.59;;;7.17;49.96
1472;BME280;963;42.644;23.336;2023-02-18T07:10:31;94861.19;;;7.25;50.07
1472;BME280;963;42.644;23.336;2023-02-18T07:12:56;94860.47;;;7.36;49.26
1472;BME280;963;42.644;23.336;2023-02-18T07:15:22;94850.16;;;7.40;49.71
1472;BME280;963;42.644;23.336;2023-02-18T07:17:51;94864.28;;;7.18;50.08
1472;BME280;963;42.644;23.336;2023-02-18T07:20:16;94867.22;;;7.46;49.24
1472;BME280;963;42.644;23.336;2023-02-18T07:22:41;94861.31;;;7.28;49.55
1472;BME280;963;42.644;23.336;2023-02-18T07:25:07;94843.97;;;7.44;49.50
1472;BME280;963;42.644;23.336;2023-02-18T07:27:32;94868.13;;;7.20;49.83
1472;BME280;963;42.644;23.336;2023-02-18T07:29:58;94833.63;;;7.27;50.76
1472;BME280;963;42.644;23.336;2023-02-18T07:32:23;94840.13;;;7.42;49.84
1472;BME280;963;42.644;23.336;2023-02-18T07:34:50;94843.84;;;7.62;49.41
1472;BME280;963;42.644;23.336;2023-02-18T07:37:17;94858.19;;;7.35;50.46
1472;BME280;963;42.644;23.336;2023-02-18T07:39:42;94846.13;;;7.21;50.56
1472;BME280;963;42.644;23.336;2023-02-18T07:42:11;94869.91;;;7.58;49.84
1472;BME280;963;42.644;23.336;2023-02-18T07:44:37;94862.34;;;7.77;49.01
1472;BME280;963;42.644;23.336;2023-02-18T07:47:04;94885.41;;;8.05;48.13
1472;BME280;963;42.644;23.336;2023-02-18T07:49:31;94874.34;;;8.20;47.32
1472;BME280;963;42.644;23.336;2023-02-18T07:51:57;94885.25;;;8.22;47.05
1472;BME280;963;42.644;23.336;2023-02-18T07:54:22;94898.25;;;8.19;47.09
1472;BME280;963;42.644;23.336;2023-02-18T07:56:48;94881.44;;;8.20;47.01
1472;BME280;963;42.644;23.336;2023-02-18T07:59:14;94909.22;;;8.12;47.99
1472;BME280;963;42.644;23.336;2023-02-18T08:01:40;94881.47;;;8.11;47.64
1472;BME280;963;42.644;23.336;2023-02-18T08:04:06;94875.72;;;8.38;46.89
1472;BME280;963;42.644;23.336;2023-02-18T08:06:36;94860.88;;;8.42;46.80
1472;BME280;963;42.644;23.336;2023-02-18T08:09:01;94861.97;;;8.54;46.94
1472;BME280;963;42.644;23.336;2023-02-18T08:11:27;94860.69;;;8.60;46.91
1472;BME280;963;42.644;23.336;2023-02-18T08:13:52;94855.56;;;8.63;46.40
1472;BME280;963;42.644;23.336;2023-02-18T08:16:19;94877.75;;;8.78;46.10
1472;BME280;963;42.644;23.336;2023-02-18T08:18:45;94865.97;;;8.84;46.21
1472;BME280;963;42.644;23.336;2023-02-18T08:21:13;94868.38;;;9.01;45.94
1472;BME280;963;42.644;23.336;2023-02-18T08:23:38;94862.25;;;8.73;46.04
1472;BME280;963;42.644;23.336;2023-02-18T08:26:04;94851.31;;;8.83;45.99
1472;BME280;963;42.644;23.336;2023-02-18T08:28:29;94848.03;;;8.86;45.99
1472;BME280;963;42.644;23.336;2023-02-18T08:30:55;94848.72;;;9.07;45.76
1472;BME280;963;42.644;23.336;2023-02-18T08:33:21;94847.94;;;9.31;44.36
1472;BME280;963;42.644;23.336;2023-02-18T08:35:48;94863.13;;;9.38;44.31
1472;BME280;963;42.644;23.336;2023-02-18T08:38:14;94840.81;;;9.20;44.22
1472;BME280;963;42.644;23.336;2023-02-18T08:40:40;94833.72;;;9.20;44.67
1472;BME280;963;42.644;23.336;2023-02-18T08:43:06;94834.22;;;9.50;44.59
1472;BME280;963;42.644;23.336;2023-02-18T08:45:32;94828.22;;;9.78;44.12
1472;BME280;963;42.644;23.336;2023-02-18T08:47:57;94819.72;;;9.68;43.14
1472;BME280;963;42.644;23.336;2023-02-18T08:50:23;94818.81;;;9.77;43.40
1472;BME280;963;42.644;23.336;2023-02-18T08:52:53;94850.78;;;10.07;42.61
1472;BME280;963;42.644;23.336;2023-02-18T08:55:19;94834.28;;;9.94;42.46
1472;BME280;963;42.644;23.336;2023-02-18T08:57:48;94846.00;;;9.96;42.20
1472;BME280;963;42.644;23.336;2023-02-18T09:00:14;94852.41;;;10.11;42.12
1472;BME280;963;42.644;23.336;2023-02-18T09:02:41;94851.75;;;10.14;42.44
1472;BME280;963;42.644;23.336;2023-02-18T09:05:07;94843.53;;;10.16;42.67
1472;BME280;963;42.644;23.336;2023-02-18T09:07:34;94843.53;;;10.44;42.11
1472;BME280;963;42.644;23.336;2023-02-18T09:09:59;94854.47;;;10.61;41.78
1472;BME280;963;42.644;23.336;2023-02-18T09:12:25;94855.78;;;10.83;40.94
1472;BME280;963;42.644;23.336;2023-02-18T09:14:50;94857.97;;;10.81;41.03
1472;BME280;963;42.644;23.336;2023-02-18T09:17:16;94843.81;;;10.86;41.01
1472;BME280;963;42.644;23.336;2023-02-18T09:19:41;94841.41;;;10.96;40.56
1472;BME280;963;42.644;23.336;2023-02-18T09:22:06;94838.69;;;10.93;40.57
1472;BME280;963;42.644;23.336;2023-02-18T09:24:36;94830.00;;;11.08;40.30
1472;BME280;963;42.644;23.336;2023-02-18T09:27:02;94844.28;;;11.07;40.16
1472;BME280;963;42.644;23.336;2023-02-18T09:29:28;94835.63;;;11.22;39.72
1472;BME280;963;42.644;23.336;2023-02-18T09:31:53;94832.38;;;11.48;39.67
1472;BME280;963;42.644;23.336;2023-02-18T09:34:18;94802.69;;;11.67;39.72
1472;BME280;963;42.644;23.336;2023-02-18T09:36:44;94823.38;;;12.04;39.18
1472;BME280;963;42.644;23.336;2023-02-18T09:39:09;94817.34;;;11.84;39.39
1472;BME280;963;42.644;23.336;2023-02-18T09:41:43;94806.22;;;12.13;39.28
1472;BME280;963;42.644;23.336;2023-02-18T09:44:20;94812.41;;;12.44;38.83
1472;BME280;963;42.644;23.336;2023-02-18T09:49:27;94806.84;;;12.72;37.89
1472;BME280;963;42.644;23.336;2023-02-18T09:51:54;94799.19;;;12.90;38.37
1472;BME280;963;42.644;23.336;2023-02-18T09:54:20;94819.72;;;13.23;37.62
1472;BME280;963;42.644;23.336;2023-02-18T09:56:47;94811.69;;;12.93;37.46
1472;BME280;963;42.644;23.336;2023-02-18T09:59:17;94817.50;;;13.28;37.34
1472;BME280;963;42.644;23.336;2023-02-18T10:01:44;94808.38;;;13.22;37.01
1472;BME280;963;42.644;23.336;2023-02-18T10:04:28;94808.63;;;12.64;37.71
1472;BME280;963;42.644;23.336;2023-02-18T10:06:57;94813.25;;;12.97;37.38
1472;BME280;963;42.644;23.336;2023-02-18T10:09:32;94818.91;;;12.96;37.37
1472;BME280;963;42.644;23.336;2023-02-18T10:12:20;94797.91;;;13.03;37.34
1472;BME280;963;42.644;23.336;2023-02-18T10:15:07;94790.97;;;12.68;37.78
1472;BME280;963;42.644;23.336;2023-02-18T10:17:41;94804.22;;;13.21;37.33
1472;BME280;963;42.644;23.336;2023-02-18T10:20:07;94796.84;;;13.64;36.85
1472;BME280;963;42.644;23.336;2023-02-18T10:22:33;94798.72;;;13.93;36.21
1472;BME280;963;42.644;23.336;2023-02-18T10:25:00;94788.72;;;14.13;36.02
1472;BME280;963;42.644;23.336;2023-02-18T10:27:30;94797.03;;;13.78;36.40
1472;BME280;963;42.644;23.336;2023-02-18T10:30:09;94786.13;;;14.17;35.80
1472;BME280;963;42.644;23.336;2023-02-18T10:32:45;94778.28;;;14.68;35.39
1472;BME280;963;42.644;23.336;2023-02-18T10:35:14;94778.38;;;14.82;35.05
1472;BME280;963;42.644;23.336;2023-02-18T10:37:56;94767.41;;;14.84;34.90
1472;BME280;963;42.644;23.336;2023-02-18T10:50:59;94734.84;;;15.42;34.17
1472;BME280;963;42.644;23.336;2023-02-18T10:53:33;94736.13;;;15.76;33.81
1472;BME280;963;42.644;23.336;2023-02-18T10:56:00;94728.22;;;15.90;33.55
1472;BME280;963;42.644;23.336;2023-02-18T11:01:19;94715.00;;;16.30;32.72
1472;BME280;963;42.644;23.336;2023-02-18T11:03:47;94719.19;;;16.48;32.92
1472;BME280;963;42.644;23.336;2023-02-18T11:08:52;94713.13;;;16.58;32.60
1472;BME280;963;42.644;23.336;2023-02-18T11:11:37;94714.66;;;16.67;32.43
1472;BME280;963;42.644;23.336;2023-02-18T11:14:07;94688.47;;;16.47;32.52
1472;BME280;963;42.644;23.336;2023-02-18T11:16:38;94689.63;;;16.43;32.47
1472;BME280;963;42.644;23.336;2023-02-18T11:19:04;94704.06;;;16.74;32.46
1472;BME280;963;42.644;23.336;2023-02-18T11:21:35;94696.44;;;16.47;32.60
1472;BME280;963;42.644;23.336;2023-02-18T11:24:11;94691.13;;;16.69;32.43
1472;BME280;963;42.644;23.336;2023-02-18T11:26:39;94677.84;;;16.86;32.13
1472;BME280;963;42.644;23.336;2023-02-18T11:29:11;94671.78;;;16.36;32.74
1472;BME280;963;42.644;23.336;2023-02-18T11:31:43;94669.13;;;16.01;32.31
1472;BME280;963;42.644;23.336;2023-02-18T11:34:23;94667.59;;;16.32;33.04
1472;BME280;963;42.644;23.336;2023-02-18T11:36:50;94661.50;;;15.95;32.92
1472;BME280;963;42.644;23.336;2023-02-18T11:39:17;94658.53;;;16.36;33.54
1472;BME280;963;42.644;23.336;2023-02-18T11:41:47;94653.19;;;16.68;32.46
1472;BME280;963;42.644;23.336;2023-02-18T11:44:38;94648.63;;;16.69;31.92
1472;BME280;963;42.644;23.336;2023-02-18T11:49:33;94634.13;;;17.02;31.73
1472;BME280;963;42.644;23.336;2023-02-18T11:52:19;94637.84;;;17.26;31.52
1472;BME280;963;42.644;23.336;2023-02-18T11:55:07;94633.22;;;17.37;32.37
1472;BME280;963;42.644;23.336;2023-02-18T11:57:41;94624.75;;;17.67;32.48
1472;BME280;963;42.644;23.336;2023-02-18T12:03:45;94606.63;;;18.48;29.65
1472;BME280;963;42.644;23.336;2023-02-18T12:06:33;94610.59;;;18.32;29.76
1472;BME280;963;42.644;23.336;2023-02-18T12:09:04;94588.06;;;18.78;29.85
1472;BME280;963;42.644;23.336;2023-02-18T12:11:41;94596.38;;;19.48;28.74
1472;BME280;963;42.644;23.336;2023-02-18T12:14:19;94584.91;;;19.51;28.55
1472;BME280;963;42.644;23.336;2023-02-18T12:17:08;94566.38;;;19.67;28.14
1472;BME280;963;42.644;23.336;2023-02-18T12:22:42;94576.06;;;19.85;29.22
1472;BME280;963;42.644;23.336;2023-02-18T12:34:04;94569.69;;;20.69;27.48
1472;BME280;963;42.644;23.336;2023-02-18T12:37:30;94576.66;;;21.26;27.06
1472;BME280;963;42.644;23.336;2023-02-18T12:48:21;94541.44;;;22.57;25.85
1472;BME280;963;42.644;23.336;2023-02-18T12:58:59;94553.59;;;21.32;28.09
1472;BME280;963;42.644;23.336;2023-02-18T13:04:51;94556.19;;;21.51;28.13
1472;BME280;963;42.644;23.336;2023-02-18T13:12:43;94540.13;;;21.51;27.92
1472;BME280;963;42.644;23.336;2023-02-18T13:15:21;94538.06;;;21.92;26.56
1472;BME280;963;42.644;23.336;2023-02-18T13:17:48;94551.97;;;22.35;26.23
1472;BME280;963;42.644;23.336;2023-02-18T13:20:26;94538.91;;;22.37;25.73
1472;BME280;963;42.644;23.336;2023-02-18T13:22:56;94542.03;;;22.49;25.32
1472;BME280;963;42.644;23.336;2023-02-18T13:25:22;94527.31;;;22.40;25.20
1472;BME280;963;42.644;23.336;2023-02-18T13:28:12;94527.22;;;22.44;25.66
1472;BME280;963;42.644;23.336;2023-02-18T13:30:57;94539.38;;;22.49;25.70
1472;BME280;963;42.644;23.336;2023-02-18T13:33:33;94528.78;;;22.12;26.15
1472;BME280;963;42.644;23.336;2023-02-18T13:36:35;94524.19;;;21.97;25.88
1472;BME280;963;42.644;23.336;2023-02-18T13:39:17;94543.00;;;21.77;25.92
1472;BME280;963;42.644;23.336;2023-02-18T13:41:46;94523.78;;;20.94;27.05
1472;BME280;963;42.644;23.336;2023-02-18T13:46:51;94514.81;;;21.20;26.52
1472;BME280;963;42.644;23.336;2023-02-18T13:49:20;94534.16;;;21.08;27.07
1472;BME280;963;42.644;23.336;2023-02-18T13:51:49;94521.44;;;20.96;26.69
1472;BME280;963;42.644;23.336;2023-02-18T13:57:16;94531.03;;;20.73;27.47
1472;BME280;963;42.644;23.336;2023-02-18T13:59:46;94523.97;;;20.43;28.25
1472;BME280;963;42.644;23.336;2023-02-18T14:13:01;94510.69;;;19.70;30.01
1472;BME280;963;42.644;23.336;2023-02-18T14:23:56;94535.53;;;19.40;30.07
1472;BME280;963;42.644;23.336;2023-02-18T14:26:03;94519.09;;;19.14;30.29
1472;BME280;963;42.644;23.336;2023-02-18T14:33:31;94537.25;;;18.62;31.42
1472;BME280;963;42.644;23.336;2023-02-18T14:46:50;94528.44;;;20.03;29.57
1472;BME280;963;42.644;23.336;2023-02-18T14:52:11;94548.81;;;23.11;26.28
1472;BME280;963;42.644;23.336;2023-02-18T14:54:39;94550.53;;;25.10;24.64
1472;BME280;963;42.644;23.336;2023-02-18T14:57:08;94524.25;;;25.95;23.58
1472;BME280;963;42.644;23.336;2023-02-18T14:59:43;94546.53;;;26.44;23.51
1472;BME280;963;42.644;23.336;2023-02-18T15:02:28;94541.97;;;26.23;23.60
1472;BME280;963;42.644;23.336;2023-02-18T15:05:18;94531.38;;;25.08;24.33
1472;BME280;963;42.644;23.336;2023-02-18T15:07:55;94524.06;;;23.83;25.25
1472;BME280;963;42.644;23.336;2023-02-18T15:10:20;94538.63;;;22.48;26.88
1472;BME280;963;42.644;23.336;2023-02-18T15:12:46;94531.75;;;21.33;27.94
1472;BME280;963;42.644;23.336;2023-02-18T15:15:13;94530.34;;;20.26;29.07
1472;BME280;963;42.644;23.336;2023-02-18T15:17:45;94522.66;;;20.08;29.50
1472;BME280;963;42.644;23.336;2023-02-18T15:20:13;94523.09;;;19.56;30.06
1472;BME280;963;42.644;23.336;2023-02-18T15:22:38;94509.06;;;19.22;30.53
1472;BME280;963;42.644;23.336;2023-02-18T15:25:05;94520.28;;;18.79;31.12
1472;BME280;963;42.644;23.336;2023-02-18T15:27:33;94516.69;;;18.62;31.40
1472;BME280;963;42.644;23.336;2023-02-18T15:32:37;94524.94;;;17.96;32.42
1472;BME280;963;42.644;23.336;2023-02-18T15:35:14;94506.22;;;17.55;32.86
1472;BME280;963;42.644;23.336;2023-02-18T15:37:44;94521.47;;;17.51;33.14
1472;BME280;963;42.644;23.336;2023-02-18T15:40:17;94505.63;;;17.30;33.49
1472;BME280;963;42.644;23.336;2023-02-18T15:42:47;94506.50;;;17.09;33.97
1472;BME280;963;42.644;23.336;2023-02-18T15:45:23;94511.25;;;16.73;34.35
1472;BME280;963;42.644;23.336;2023-02-18T15:47:54;94523.78;;;16.69;34.18
1472;BME280;963;42.644;23.336;2023-02-18T15:50:24;94512.78;;;16.67;34.43
1472;BME280;963;42.644;23.336;2023-02-18T15:52:52;94508.72;;;16.23;35.50
1472;BME280;963;42.644;23.336;2023-02-18T15:55:51;94509.91;;;16.11;35.43
1472;BME280;963;42.644;23.336;2023-02-18T15:58:31;94514.81;;;16.13;35.39
1472;BME280;963;42.644;23.336;2023-02-18T16:01:02;94498.91;;;15.95;35.63
1472;BME280;963;42.644;23.336;2023-02-18T16:11:22;94507.28;;;15.65;36.65
1472;BME280;963;42.644;23.336;2023-02-18T16:13:49;94494.75;;;15.58;36.57
1472;BME280;963;42.644;23.336;2023-02-18T16:18:54;94503.44;;;15.52;36.31
1472;BME280;963;42.644;23.336;2023-02-18T16:23:51;94512.13;;;15.13;37.51
1472;BME280;963;42.644;23.336;2023-02-18T16:29:14;94499.59;;;14.99;37.75
1472;BME280;963;42.644;23.336;2023-02-18T16:31:41;94521.91;;;14.91;38.01
1472;BME280;963;42.644;23.336;2023-02-18T16:34:06;94507.09;;;14.80;37.94
1472;BME280;963;42.644;23.336;2023-02-18T16:36:32;94518.06;;;14.75;38.46